sensor_id;sensor_type;location;lat;lon;timestamp;temperature;humidity
24374;DHT22;12498;50.880;12.096;2022-11-03T00:01:54;7.80;99.90
24374;DHT22;12498;50.880;12.096;2022-11-03T00:04:21;7.80;99.90
24374;DHT22;12498;50.880;12.096;2022-11-03T00:06:49;8.00;99.90
24374;DHT22;12498;50.880;12.096;2022-11-03T00:09:17;7.90;99.90
24374;DHT22;12498;50.880;12.096;2022-11-03T00:11:44;7.80;99.90
24374;DHT22;12498;50.880;12.096;2022-11-03T00:14:11;7.80;99.90
24374;DHT22;12498;50.880;12.096;2022-11-03T00:16:37;7.80;99.90
24374;DHT22;12498;50.880;12.096;2022-11-03T00:19:04;7.80;99.90
24374;DHT22;12498;50.880;12.096;2022-11-03T00:21:30;7.70;99.90
24374;DHT22;12498;50.880;12.096;2022-11-03T00:23:56;7.70;99.90
24374;DHT22;12498;50.880;12.096;2022-11-03T00:26:24;7.60;99.90
24374;DHT22;12498;50.880;12.096;2022-11-03T00:28:52;7.70;99.90
24374;DHT22;12498;50.880;12.096;2022-11-03T00:31:29;7.70;99.90
24374;DHT22;12498;50.880;12.096;2022-11-03T00:33:55;7.60;99.90
24374;DHT22;12498;50.880;12.096;2022-11-03T00:36:24;7.60;99.90
24374;DHT22;12498;50.880;12.096;2022-11-03T00:38:49;7.50;99.90
24374;DHT22;12498;50.880;12.096;2022-11-03T00:41:16;7.60;99.90
24374;DHT22;12498;50.880;12.096;2022-11-03T00:43:42;8.00;99.90
24374;DHT22;12498;50.880;12.096;2022-11-03T00:46:09;7.50;99.90
24374;DHT22;12498;50.880;12.096;2022-11-03T00:48:35;7.90;99.90
24374;DHT22;12498;50.880;12.096;2022-11-03T00:51:30;7.70;99.90
24374;DHT22;12498;50.880;12.096;2022-11-03T00:53:59;7.90;99.90
24374;DHT22;12498;50.880;12.096;2022-11-03T00:56:39;7.80;99.90
24374;DHT22;12498;50.880;12.096;2022-11-03T01:01:37;7.90;99.90
24374;DHT22;12498;50.880;12.096;2022-11-03T01:04:05;7.80;99.90
24374;DHT22;12498;50.880;12.096;2022-11-03T01:06:51;7.80;99.90
24374;DHT22;12498;50.880;12.096;2022-11-03T01:09:29;7.80;99.90
24374;DHT22;12498;50.880;12.096;2022-11-03T01:14:31;7.80;99.90
24374;DHT22;12498;50.880;12.096;2022-11-03T01:16:57;7.80;99.90
24374;DHT22;12498;50.880;12.096;2022-11-03T01:19:23;7.80;99.90
24374;DHT22;12498;50.880;12.096;2022-11-03T01:21:50;7.80;99.90
24374;DHT22;12498;50.880;12.096;2022-11-03T01:24:16;7.80;99.90
24374;DHT22;12498;50.880;12.096;2022-11-03T01:26:42;7.80;99.90
24374;DHT22;12498;50.880;12.096;2022-11-03T01:29:07;7.90;99.90
24374;DHT22;12498;50.880;12.096;2022-11-03T01:31:33;8.00;99.90
24374;DHT22;12498;50.880;12.096;2022-11-03T01:33:58;7.80;99.90
24374;DHT22;12498;50.880;12.096;2022-11-03T01:38:50;7.70;99.90
24374;DHT22;12498;50.880;12.096;2022-11-03T01:41:21;7.70;99.90
24374;DHT22;12498;50.880;12.096;2022-11-03T01:49:35;7.60;99.90
24374;DHT22;12498;50.880;12.096;2022-11-03T01:54:34;7.50;99.90
24374;DHT22;12498;50.880;12.096;2022-11-03T01:57:04;7.50;99.90
24374;DHT22;12498;50.880;12.096;2022-11-03T01:59:31;7.60;99.90
24374;DHT22;12498;50.880;12.096;2022-11-03T02:01:57;7.50;99.90
24374;DHT22;12498;50.880;12.096;2022-11-03T02:04:27;7.60;99.90
24374;DHT22;12498;50.880;12.096;2022-11-03T02:07:01;7.70;99.90
24374;DHT22;12498;50.880;12.096;2022-11-03T02:09:30;7.70;99.90
24374;DHT22;12498;50.880;12.096;2022-11-03T02:11:56;7.80;99.90
24374;DHT22;12498;50.880;12.096;2022-11-03T02:14:31;7.60;99.90
24374;DHT22;12498;50.880;12.096;2022-11-03T02:17:00;7.50;99.90
24374;DHT22;12498;50.880;12.096;2022-11-03T02:19:47;7.50;99.90
24374;DHT22;12498;50.880;12.096;2022-11-03T02:27:49;7.50;99.90
24374;DHT22;12498;50.880;12.096;2022-11-03T02:30:15;7.50;99.90
24374;DHT22;12498;50.880;12.096;2022-11-03T02:32:55;7.50;99.90
24374;DHT22;12498;50.880;12.096;2022-11-03T02:35:39;7.40;99.90
24374;DHT22;12498;50.880;12.096;2022-11-03T02:38:08;7.50;99.90
24374;DHT22;12498;50.880;12.096;2022-11-03T02:40:44;7.30;99.90
24374;DHT22;12498;50.880;12.096;2022-11-03T02:43:15;7.40;99.90
24374;DHT22;12498;50.880;12.096;2022-11-03T02:45:42;7.30;99.90
24374;DHT22;12498;50.880;12.096;2022-11-03T02:48:10;7.30;99.90
24374;DHT22;12498;50.880;12.096;2022-11-03T02:50:37;7.30;99.90
24374;DHT22;12498;50.880;12.096;2022-11-03T02:53:02;7.30;99.90
24374;DHT22;12498;50.880;12.096;2022-11-03T03:00:51;7.20;99.90
24374;DHT22;12498;50.880;12.096;2022-11-03T03:03:23;7.20;99.90
24374;DHT22;12498;50.880;12.096;2022-11-03T03:05:52;7.40;99.90
24374;DHT22;12498;50.880;12.096;2022-11-03T03:08:21;7.20;99.90
24374;DHT22;12498;50.880;12.096;2022-11-03T03:10:47;7.10;99.90
24374;DHT22;12498;50.880;12.096;2022-11-03T03:13:16;7.20;99.90
24374;DHT22;12498;50.880;12.096;2022-11-03T03:15:46;7.10;99.90
24374;DHT22;12498;50.880;12.096;2022-11-03T03:21:01;7.10;99.90
24374;DHT22;12498;50.880;12.096;2022-11-03T03:23:50;7.00;99.90
24374;DHT22;12498;50.880;12.096;2022-11-03T03:26:24;7.20;99.90
24374;DHT22;12498;50.880;12.096;2022-11-03T03:29:08;7.00;99.90
24374;DHT22;12498;50.880;12.096;2022-11-03T03:31:37;7.10;99.90
24374;DHT22;12498;50.880;12.096;2022-11-03T03:34:04;7.00;99.90
24374;DHT22;12498;50.880;12.096;2022-11-03T03:36:32;7.00;99.90
24374;DHT22;12498;50.880;12.096;2022-11-03T03:39:03;6.90;99.90
24374;DHT22;12498;50.880;12.096;2022-11-03T03:41:31;6.90;99.90
24374;DHT22;12498;50.880;12.096;2022-11-03T03:44:00;6.80;99.90
24374;DHT22;12498;50.880;12.096;2022-11-03T03:46:36;6.90;99.90
24374;DHT22;12498;50.880;12.096;2022-11-03T03:49:03;6.80;99.90
24374;DHT22;12498;50.880;12.096;2022-11-03T03:51:28;6.90;99.90
24374;DHT22;12498;50.880;12.096;2022-11-03T03:53:55;6.80;99.90
24374;DHT22;12498;50.880;12.096;2022-11-03T03:58:49;6.80;99.90
24374;DHT22;12498;50.880;12.096;2022-11-03T04:01:14;6.50;99.90
24374;DHT22;12498;50.880;12.096;2022-11-03T04:03:40;6.60;99.90
24374;DHT22;12498;50.880;12.096;2022-11-03T04:06:06;6.70;99.90
24374;DHT22;12498;50.880;12.096;2022-11-03T04:08:32;6.70;99.90
24374;DHT22;12498;50.880;12.096;2022-11-03T04:10:57;6.60;99.90
24374;DHT22;12498;50.880;12.096;2022-11-03T04:13:41;6.70;99.90
24374;DHT22;12498;50.880;12.096;2022-11-03T04:16:25;6.70;99.90
24374;DHT22;12498;50.880;12.096;2022-11-03T04:19:10;6.70;99.90
24374;DHT22;12498;50.880;12.096;2022-11-03T04:21:54;6.60;99.90
24374;DHT22;12498;50.880;12.096;2022-11-03T04:24:38;6.70;99.90
24374;DHT22;12498;50.880;12.096;2022-11-03T04:27:35;6.60;99.90
24374;DHT22;12498;50.880;12.096;2022-11-03T04:30:13;6.60;99.90
24374;DHT22;12498;50.880;12.096;2022-11-03T04:32:40;6.60;99.90
24374;DHT22;12498;50.880;12.096;2022-11-03T04:35:26;6.50;99.90
24374;DHT22;12498;50.880;12.096;2022-11-03T04:38:04;6.50;99.90
24374;DHT22;12498;50.880;12.096;2022-11-03T04:40:33;6.70;99.90
24374;DHT22;12498;50.880;12.096;2022-11-03T04:42:59;6.50;99.90
24374;DHT22;12498;50.880;12.096;2022-11-03T04:45:29;6.60;99.90
24374;DHT22;12498;50.880;12.096;2022-11-03T04:47:55;6.50;99.90
24374;DHT22;12498;50.880;12.096;2022-11-03T04:50:23;6.70;99.90
24374;DHT22;12498;50.880;12.096;2022-11-03T04:52:55;6.50;99.90
24374;DHT22;12498;50.880;12.096;2022-11-03T04:55:21;6.40;99.90
24374;DHT22;12498;50.880;12.096;2022-11-03T04:57:48;6.40;99.90
24374;DHT22;12498;50.880;12.096;2022-11-03T05:00:19;6.50;99.90
24374;DHT22;12498;50.880;12.096;2022-11-03T05:02:46;6.50;99.90
24374;DHT22;12498;50.880;12.096;2022-11-03T05:07:44;6.50;99.90
24374;DHT22;12498;50.880;12.096;2022-11-03T05:10:18;6.50;99.90
24374;DHT22;12498;50.880;12.096;2022-11-03T05:12:46;6.40;99.90
24374;DHT22;12498;50.880;12.096;2022-11-03T05:16:03;6.30;99.90
24374;DHT22;12498;50.880;12.096;2022-11-03T05:18:23;6.30;99.90
24374;DHT22;12498;50.880;12.096;2022-11-03T05:20:53;6.20;99.90
24374;DHT22;12498;50.880;12.096;2022-11-03T05:23:21;6.10;99.90
24374;DHT22;12498;50.880;12.096;2022-11-03T05:25:49;6.10;99.90
24374;DHT22;12498;50.880;12.096;2022-11-03T05:28:29;6.40;99.90
24374;DHT22;12498;50.880;12.096;2022-11-03T05:30:56;7.20;99.90
24374;DHT22;12498;50.880;12.096;2022-11-03T05:33:25;7.80;99.90
24374;DHT22;12498;50.880;12.096;2022-11-03T05:35:52;7.90;99.90
24374;DHT22;12498;50.880;12.096;2022-11-03T05:38:19;8.00;99.90
24374;DHT22;12498;50.880;12.096;2022-11-03T05:40:49;8.00;99.90
24374;DHT22;12498;50.880;12.096;2022-11-03T05:43:15;8.30;99.90
24374;DHT22;12498;50.880;12.096;2022-11-03T05:45:42;8.20;99.90
24374;DHT22;12498;50.880;12.096;2022-11-03T05:50:48;7.90;99.90
24374;DHT22;12498;50.880;12.096;2022-11-03T05:53:29;8.90;99.90
24374;DHT22;12498;50.880;12.096;2022-11-03T05:56:00;8.90;99.90
24374;DHT22;12498;50.880;12.096;2022-11-03T05:58:36;8.50;99.90
24374;DHT22;12498;50.880;12.096;2022-11-03T06:01:38;8.50;99.90
24374;DHT22;12498;50.880;12.096;2022-11-03T06:04:31;8.40;99.90
24374;DHT22;12498;50.880;12.096;2022-11-03T06:06:58;8.40;99.90
24374;DHT22;12498;50.880;12.096;2022-11-03T06:09:25;8.00;99.90
24374;DHT22;12498;50.880;12.096;2022-11-03T06:11:53;7.60;99.90
24374;DHT22;12498;50.880;12.096;2022-11-03T06:14:23;7.50;99.90
24374;DHT22;12498;50.880;12.096;2022-11-03T06:17:02;7.20;99.90
24374;DHT22;12498;50.880;12.096;2022-11-03T06:19:43;7.00;99.90
24374;DHT22;12498;50.880;12.096;2022-11-03T06:22:24;6.90;99.90
24374;DHT22;12498;50.880;12.096;2022-11-03T06:24:53;7.00;99.90
24374;DHT22;12498;50.880;12.096;2022-11-03T06:27:23;6.80;99.90
24374;DHT22;12498;50.880;12.096;2022-11-03T06:57:17;6.80;99.90
24374;DHT22;12498;50.880;12.096;2022-11-03T07:14:43;6.80;99.90
24374;DHT22;12498;50.880;12.096;2022-11-03T07:17:17;7.30;99.90
24374;DHT22;12498;50.880;12.096;2022-11-03T07:19:46;7.20;99.90
24374;DHT22;12498;50.880;12.096;2022-11-03T07:32:18;7.60;99.90
24374;DHT22;12498;50.880;12.096;2022-11-03T08:38:49;10.60;99.90
24374;DHT22;12498;50.880;12.096;2022-11-03T08:41:15;10.60;99.90
24374;DHT22;12498;50.880;12.096;2022-11-03T08:43:41;10.80;99.90
24374;DHT22;12498;50.880;12.096;2022-11-03T08:46:06;10.90;99.90
24374;DHT22;12498;50.880;12.096;2022-11-03T08:48:32;11.10;99.90
24374;DHT22;12498;50.880;12.096;2022-11-03T08:50:57;11.00;99.90
24374;DHT22;12498;50.880;12.096;2022-11-03T08:53:24;11.20;99.90
24374;DHT22;12498;50.880;12.096;2022-11-03T08:55:54;12.20;99.90
24374;DHT22;12498;50.880;12.096;2022-11-03T08:58:21;11.20;99.90
24374;DHT22;12498;50.880;12.096;2022-11-03T09:00:47;11.30;99.90
24374;DHT22;12498;50.880;12.096;2022-11-03T09:05:39;11.30;99.90
24374;DHT22;12498;50.880;12.096;2022-11-03T09:08:05;11.40;99.90
24374;DHT22;12498;50.880;12.096;2022-11-03T09:10:32;11.60;99.90
24374;DHT22;12498;50.880;12.096;2022-11-03T09:12:57;7.90;99.90
24374;DHT22;12498;50.880;12.096;2022-11-03T09:15:23;10.10;99.90
24374;DHT22;12498;50.880;12.096;2022-11-03T09:25:08;11.80;83.40
24374;DHT22;12498;50.880;12.096;2022-11-03T09:27:34;11.80;90.10
24374;DHT22;12498;50.880;12.096;2022-11-03T09:29:59;11.80;90.10
24374;DHT22;12498;50.880;12.096;2022-11-03T09:32:25;11.80;89.80
24374;DHT22;12498;50.880;12.096;2022-11-03T09:34:50;11.80;90.90
24374;DHT22;12498;50.880;12.096;2022-11-03T09:37:16;11.80;91.80
24374;DHT22;12498;50.880;12.096;2022-11-03T09:39:42;11.90;85.00
24374;DHT22;12498;50.880;12.096;2022-11-03T09:42:10;11.90;79.00
24374;DHT22;12498;50.880;12.096;2022-11-03T09:44:37;11.90;75.50
24374;DHT22;12498;50.880;12.096;2022-11-03T09:47:04;12.00;63.30
24374;DHT22;12498;50.880;12.096;2022-11-03T09:49:31;12.10;55.20
24374;DHT22;12498;50.880;12.096;2022-11-03T09:51:58;12.20;37.60
24374;DHT22;12498;50.880;12.096;2022-11-03T09:54:25;12.20;11.60
24374;DHT22;12498;50.880;12.096;2022-11-03T09:56:51;12.30;4.70
24374;DHT22;12498;50.880;12.096;2022-11-03T09:59:21;12.40;1.00
24374;DHT22;12498;50.880;12.096;2022-11-03T10:01:49;12.50;1.00
24374;DHT22;12498;50.880;12.096;2022-11-03T10:04:20;12.60;1.00
24374;DHT22;12498;50.880;12.096;2022-11-03T10:06:47;12.80;1.00
24374;DHT22;12498;50.880;12.096;2022-11-03T10:09:17;12.90;1.00
24374;DHT22;12498;50.880;12.096;2022-11-03T10:11:45;12.90;1.00
24374;DHT22;12498;50.880;12.096;2022-11-03T10:14:15;13.00;1.00
24374;DHT22;12498;50.880;12.096;2022-11-03T10:16:42;13.10;1.00
24374;DHT22;12498;50.880;12.096;2022-11-03T10:19:13;13.20;1.00
24374;DHT22;12498;50.880;12.096;2022-11-03T10:21:40;13.30;1.00
24374;DHT22;12498;50.880;12.096;2022-11-03T10:24:13;13.40;1.00
24374;DHT22;12498;50.880;12.096;2022-11-03T10:26:47;13.50;1.00
24374;DHT22;12498;50.880;12.096;2022-11-03T10:31:48;13.70;1.00
24374;DHT22;12498;50.880;12.096;2022-11-03T10:39:37;13.80;1.00
24374;DHT22;12498;50.880;12.096;2022-11-03T10:42:03;13.90;1.00
24374;DHT22;12498;50.880;12.096;2022-11-03T10:44:29;14.00;1.00
24374;DHT22;12498;50.880;12.096;2022-11-03T10:46:59;14.10;1.00
24374;DHT22;12498;50.880;12.096;2022-11-03T10:49:31;14.10;1.00
24374;DHT22;12498;50.880;12.096;2022-11-03T10:52:13;14.20;1.00
24374;DHT22;12498;50.880;12.096;2022-11-03T10:54:40;14.30;1.00
24374;DHT22;12498;50.880;12.096;2022-11-03T10:57:06;14.40;1.00
24374;DHT22;12498;50.880;12.096;2022-11-03T10:59:36;14.50;1.00
24374;DHT22;12498;50.880;12.096;2022-11-03T11:02:10;14.50;1.00
24374;DHT22;12498;50.880;12.096;2022-11-03T11:04:37;14.60;1.00
24374;DHT22;12498;50.880;12.096;2022-11-03T11:07:14;14.70;1.00
24374;DHT22;12498;50.880;12.096;2022-11-03T11:09:42;14.80;1.00
24374;DHT22;12498;50.880;12.096;2022-11-03T11:12:20;14.80;1.00
24374;DHT22;12498;50.880;12.096;2022-11-03T11:15:02;14.90;1.00
24374;DHT22;12498;50.880;12.096;2022-11-03T11:17:43;14.80;1.00
24374;DHT22;12498;50.880;12.096;2022-11-03T11:22:44;14.80;1.00
24374;DHT22;12498;50.880;12.096;2022-11-03T11:25:10;14.80;1.00
24374;DHT22;12498;50.880;12.096;2022-11-03T11:32:58;14.70;1.00
24374;DHT22;12498;50.880;12.096;2022-11-03T11:37:51;14.40;1.00
24374;DHT22;12498;50.880;12.096;2022-11-03T11:48:30;14.60;1.00
24374;DHT22;12498;50.880;12.096;2022-11-03T11:50:57;14.70;1.00
24374;DHT22;12498;50.880;12.096;2022-11-03T11:53:23;14.70;1.00
24374;DHT22;12498;50.880;12.096;2022-11-03T11:55:53;14.80;1.00
24374;DHT22;12498;50.880;12.096;2022-11-03T12:00:59;14.90;1.00
24374;DHT22;12498;50.880;12.096;2022-11-03T12:03:42;14.90;1.00
24374;DHT22;12498;50.880;12.096;2022-11-03T12:06:12;15.00;1.00
24374;DHT22;12498;50.880;12.096;2022-11-03T12:08:38;15.00;1.00
24374;DHT22;12498;50.880;12.096;2022-11-03T12:11:10;15.10;1.00
24374;DHT22;12498;50.880;12.096;2022-11-03T12:13:48;15.20;1.00
24374;DHT22;12498;50.880;12.096;2022-11-03T12:18:54;15.30;1.00
24374;DHT22;12498;50.880;12.096;2022-11-03T12:21:46;15.30;1.00
24374;DHT22;12498;50.880;12.096;2022-11-03T12:26:56;15.20;1.00
24374;DHT22;12498;50.880;12.096;2022-11-03T12:29:22;15.30;1.00
24374;DHT22;12498;50.880;12.096;2022-11-03T12:31:48;15.40;99.90
24374;DHT22;12498;50.880;12.096;2022-11-03T12:34:13;15.60;99.90
24374;DHT22;12498;50.880;12.096;2022-11-03T12:36:39;15.60;99.90
24374;DHT22;12498;50.880;12.096;2022-11-03T12:39:04;15.70;99.90
24374;DHT22;12498;50.880;12.096;2022-11-03T12:41:30;15.70;99.90
24374;DHT22;12498;50.880;12.096;2022-11-03T12:43:56;15.80;99.90
24374;DHT22;12498;50.880;12.096;2022-11-03T12:46:22;15.90;99.90
24374;DHT22;12498;50.880;12.096;2022-11-03T12:48:48;16.00;99.90
24374;DHT22;12498;50.880;12.096;2022-11-03T12:51:22;16.00;99.90
24374;DHT22;12498;50.880;12.096;2022-11-03T12:53:48;16.00;99.90
24374;DHT22;12498;50.880;12.096;2022-11-03T12:56:15;16.10;99.90
24374;DHT22;12498;50.880;12.096;2022-11-03T12:58:43;16.10;99.90
24374;DHT22;12498;50.880;12.096;2022-11-03T13:01:09;16.20;99.90
24374;DHT22;12498;50.880;12.096;2022-11-03T13:03:35;16.10;99.90
24374;DHT22;12498;50.880;12.096;2022-11-03T13:06:03;16.20;99.90
24374;DHT22;12498;50.880;12.096;2022-11-03T13:08:30;16.30;99.90
24374;DHT22;12498;50.880;12.096;2022-11-03T13:10:56;16.40;99.90
24374;DHT22;12498;50.880;12.096;2022-11-03T13:13:22;16.60;99.90
24374;DHT22;12498;50.880;12.096;2022-11-03T13:15:47;16.50;99.90
24374;DHT22;12498;50.880;12.096;2022-11-03T13:18:13;16.30;99.90
24374;DHT22;12498;50.880;12.096;2022-11-03T13:20:38;16.20;99.90
24374;DHT22;12498;50.880;12.096;2022-11-03T13:23:04;16.20;99.90
24374;DHT22;12498;50.880;12.096;2022-11-03T13:25:30;16.30;99.90
24374;DHT22;12498;50.880;12.096;2022-11-03T13:27:56;16.30;99.90
24374;DHT22;12498;50.880;12.096;2022-11-03T13:30:25;16.40;99.90
24374;DHT22;12498;50.880;12.096;2022-11-03T13:32:54;16.50;99.90
24374;DHT22;12498;50.880;12.096;2022-11-03T13:35:20;16.50;99.90
24374;DHT22;12498;50.880;12.096;2022-11-03T13:37:46;16.40;99.90
24374;DHT22;12498;50.880;12.096;2022-11-03T13:40:12;16.40;99.90
24374;DHT22;12498;50.880;12.096;2022-11-03T13:42:38;16.40;99.90
24374;DHT22;12498;50.880;12.096;2022-11-03T13:45:05;16.40;99.90
24374;DHT22;12498;50.880;12.096;2022-11-03T13:47:32;16.40;99.90
24374;DHT22;12498;50.880;12.096;2022-11-03T13:49:57;16.40;99.90
24374;DHT22;12498;50.880;12.096;2022-11-03T13:52:25;16.30;99.90
24374;DHT22;12498;50.880;12.096;2022-11-03T13:54:50;16.20;99.90
24374;DHT22;12498;50.880;12.096;2022-11-03T13:57:17;16.10;99.90
24374;DHT22;12498;50.880;12.096;2022-11-03T13:59:43;16.00;99.90
24374;DHT22;12498;50.880;12.096;2022-11-03T14:02:09;15.80;99.90
24374;DHT22;12498;50.880;12.096;2022-11-03T14:04:35;15.70;99.90
24374;DHT22;12498;50.880;12.096;2022-11-03T14:07:04;15.60;99.90
24374;DHT22;12498;50.880;12.096;2022-11-03T14:09:30;15.40;99.90
24374;DHT22;12498;50.880;12.096;2022-11-03T14:11:55;15.40;99.90
24374;DHT22;12498;50.880;12.096;2022-11-03T14:14:40;15.30;99.90
24374;DHT22;12498;50.880;12.096;2022-11-03T14:17:06;15.30;99.90
24374;DHT22;12498;50.880;12.096;2022-11-03T14:19:32;15.20;99.90
24374;DHT22;12498;50.880;12.096;2022-11-03T14:21:57;15.20;99.90
24374;DHT22;12498;50.880;12.096;2022-11-03T14:24:23;15.20;99.90
24374;DHT22;12498;50.880;12.096;2022-11-03T14:26:49;15.10;1.00
24374;DHT22;12498;50.880;12.096;2022-11-03T14:29:14;15.00;1.00
24374;DHT22;12498;50.880;12.096;2022-11-03T14:31:40;14.90;1.00
24374;DHT22;12498;50.880;12.096;2022-11-03T14:34:05;14.80;1.00
24374;DHT22;12498;50.880;12.096;2022-11-03T14:36:31;14.70;1.00
24374;DHT22;12498;50.880;12.096;2022-11-03T14:38:57;14.60;1.00
24374;DHT22;12498;50.880;12.096;2022-11-03T14:41:22;14.50;1.00
24374;DHT22;12498;50.880;12.096;2022-11-03T14:44:07;14.50;1.00
24374;DHT22;12498;50.880;12.096;2022-11-03T14:46:32;14.50;1.00
24374;DHT22;12498;50.880;12.096;2022-11-03T14:49:01;14.40;1.00
24374;DHT22;12498;50.880;12.096;2022-11-03T14:51:27;14.30;1.00
24374;DHT22;12498;50.880;12.096;2022-11-03T14:53:53;14.20;1.00
24374;DHT22;12498;50.880;12.096;2022-11-03T14:56:19;14.20;1.00
24374;DHT22;12498;50.880;12.096;2022-11-03T14:58:44;14.10;1.00
24374;DHT22;12498;50.880;12.096;2022-11-03T15:01:10;14.10;1.00
24374;DHT22;12498;50.880;12.096;2022-11-03T15:03:36;14.00;1.00
24374;DHT22;12498;50.880;12.096;2022-11-03T15:06:01;13.90;1.00
24374;DHT22;12498;50.880;12.096;2022-11-03T15:08:27;13.80;1.00
24374;DHT22;12498;50.880;12.096;2022-11-03T15:10:54;13.70;1.00
24374;DHT22;12498;50.880;12.096;2022-11-03T15:13:19;13.60;1.00
24374;DHT22;12498;50.880;12.096;2022-11-03T15:15:45;13.60;1.00
24374;DHT22;12498;50.880;12.096;2022-11-03T15:18:10;13.50;1.00
24374;DHT22;12498;50.880;12.096;2022-11-03T15:20:36;13.50;1.00
24374;DHT22;12498;50.880;12.096;2022-11-03T15:23:03;13.50;1.00
24374;DHT22;12498;50.880;12.096;2022-11-03T15:25:29;13.40;1.00
24374;DHT22;12498;50.880;12.096;2022-11-03T15:27:54;13.30;1.00
24374;DHT22;12498;50.880;12.096;2022-11-03T15:30:20;13.20;1.00
24374;DHT22;12498;50.880;12.096;2022-11-03T15:32:46;13.20;1.00
24374;DHT22;12498;50.880;12.096;2022-11-03T15:35:12;13.20;1.00
24374;DHT22;12498;50.880;12.096;2022-11-03T15:37:37;13.10;1.00
24374;DHT22;12498;50.880;12.096;2022-11-03T15:40:04;13.10;1.00
24374;DHT22;12498;50.880;12.096;2022-11-03T15:42:29;13.00;1.00
24374;DHT22;12498;50.880;12.096;2022-11-03T15:44:55;13.00;1.00
24374;DHT22;12498;50.880;12.096;2022-11-03T15:47:21;12.90;1.00
24374;DHT22;12498;50.880;12.096;2022-11-03T15:49:46;12.80;1.00
24374;DHT22;12498;50.880;12.096;2022-11-03T15:52:12;12.80;1.00
24374;DHT22;12498;50.880;12.096;2022-11-03T15:54:37;12.70;1.00
24374;DHT22;12498;50.880;12.096;2022-11-03T15:57:03;12.70;1.00
24374;DHT22;12498;50.880;12.096;2022-11-03T15:59:28;12.60;1.00
24374;DHT22;12498;50.880;12.096;2022-11-03T16:01:54;12.60;1.00
24374;DHT22;12498;50.880;12.096;2022-11-03T16:04:20;12.60;1.00
24374;DHT22;12498;50.880;12.096;2022-11-03T16:06:45;12.50;1.00
24374;DHT22;12498;50.880;12.096;2022-11-03T16:09:14;12.50;1.00
24374;DHT22;12498;50.880;12.096;2022-11-03T16:11:40;12.50;1.00
24374;DHT22;12498;50.880;12.096;2022-11-03T16:14:05;12.40;1.00
24374;DHT22;12498;50.880;12.096;2022-11-03T16:16:31;12.40;1.00
24374;DHT22;12498;50.880;12.096;2022-11-03T16:18:56;12.40;1.00
24374;DHT22;12498;50.880;12.096;2022-11-03T16:21:22;12.30;1.00
24374;DHT22;12498;50.880;12.096;2022-11-03T16:23:48;12.30;1.00
24374;DHT22;12498;50.880;12.096;2022-11-03T16:26:13;12.20;1.00
24374;DHT22;12498;50.880;12.096;2022-11-03T16:28:39;12.30;1.00
24374;DHT22;12498;50.880;12.096;2022-11-03T16:31:04;12.30;1.00
24374;DHT22;12498;50.880;12.096;2022-11-03T16:33:31;12.30;1.00
24374;DHT22;12498;50.880;12.096;2022-11-03T16:35:57;12.20;1.00
24374;DHT22;12498;50.880;12.096;2022-11-03T16:38:22;12.20;1.00
24374;DHT22;12498;50.880;12.096;2022-11-03T16:40:48;12.20;1.00
24374;DHT22;12498;50.880;12.096;2022-11-03T16:43:14;12.20;1.00
24374;DHT22;12498;50.880;12.096;2022-11-03T16:45:39;12.20;1.00
24374;DHT22;12498;50.880;12.096;2022-11-03T16:48:05;12.50;1.00
24374;DHT22;12498;50.880;12.096;2022-11-03T16:50:34;12.40;1.00
24374;DHT22;12498;50.880;12.096;2022-11-03T16:53:00;12.20;1.00
24374;DHT22;12498;50.880;12.096;2022-11-03T16:55:26;12.50;1.00
24374;DHT22;12498;50.880;12.096;2022-11-03T16:57:51;12.30;1.00
24374;DHT22;12498;50.880;12.096;2022-11-03T17:00:18;12.30;2.60
24374;DHT22;12498;50.880;12.096;2022-11-03T17:02:45;12.30;3.70
24374;DHT22;12498;50.880;12.096;2022-11-03T17:05:12;12.30;1.00
24374;DHT22;12498;50.880;12.096;2022-11-03T17:07:38;12.10;1.00
24374;DHT22;12498;50.880;12.096;2022-11-03T17:10:05;12.20;2.50
24374;DHT22;12498;50.880;12.096;2022-11-03T17:12:31;12.10;2.30
24374;DHT22;12498;50.880;12.096;2022-11-03T17:14:59;12.20;7.00
24374;DHT22;12498;50.880;12.096;2022-11-03T17:17:25;12.20;11.50
24374;DHT22;12498;50.880;12.096;2022-11-03T17:19:50;12.10;8.80
24374;DHT22;12498;50.880;12.096;2022-11-03T17:22:16;11.90;2.90
24374;DHT22;12498;50.880;12.096;2022-11-03T17:24:42;12.00;1.50
24374;DHT22;12498;50.880;12.096;2022-11-03T17:27:20;12.10;16.10
24374;DHT22;12498;50.880;12.096;2022-11-03T17:29:49;12.00;11.40
24374;DHT22;12498;50.880;12.096;2022-11-03T17:32:34;12.00;6.40
24374;DHT22;12498;50.880;12.096;2022-11-03T17:35:00;11.80;2.00
24374;DHT22;12498;50.880;12.096;2022-11-03T17:37:26;11.90;11.90
24374;DHT22;12498;50.880;12.096;2022-11-03T17:39:52;12.00;12.70
24374;DHT22;12498;50.880;12.096;2022-11-03T17:42:24;12.00;12.40
24374;DHT22;12498;50.880;12.096;2022-11-03T17:44:54;11.80;1.40
24374;DHT22;12498;50.880;12.096;2022-11-03T17:47:21;11.90;1.40
24374;DHT22;12498;50.880;12.096;2022-11-03T17:49:48;11.70;3.90
24374;DHT22;12498;50.880;12.096;2022-11-03T17:52:19;11.80;1.00
24374;DHT22;12498;50.880;12.096;2022-11-03T17:54:47;11.80;1.00
24374;DHT22;12498;50.880;12.096;2022-11-03T17:57:18;11.70;1.00
24374;DHT22;12498;50.880;12.096;2022-11-03T17:59:47;11.70;2.20
24374;DHT22;12498;50.880;12.096;2022-11-03T18:02:15;11.80;1.00
24374;DHT22;12498;50.880;12.096;2022-11-03T18:04:45;11.70;1.00
24374;DHT22;12498;50.880;12.096;2022-11-03T18:07:21;11.80;1.00
24374;DHT22;12498;50.880;12.096;2022-11-03T18:09:51;11.70;1.00
24374;DHT22;12498;50.880;12.096;2022-11-03T18:12:23;11.70;1.00
24374;DHT22;12498;50.880;12.096;2022-11-03T18:15:14;11.80;1.00
24374;DHT22;12498;50.880;12.096;2022-11-03T18:17:40;11.70;1.00
24374;DHT22;12498;50.880;12.096;2022-11-03T18:20:13;11.70;1.00
24374;DHT22;12498;50.880;12.096;2022-11-03T18:22:39;11.70;1.00
24374;DHT22;12498;50.880;12.096;2022-11-03T18:25:14;11.70;1.00
24374;DHT22;12498;50.880;12.096;2022-11-03T18:27:40;11.70;1.00
24374;DHT22;12498;50.880;12.096;2022-11-03T18:30:07;11.70;1.00
24374;DHT22;12498;50.880;12.096;2022-11-03T18:32:33;11.60;1.00
24374;DHT22;12498;50.880;12.096;2022-11-03T18:34:59;11.60;1.00
24374;DHT22;12498;50.880;12.096;2022-11-03T18:37:25;11.60;1.00
24374;DHT22;12498;50.880;12.096;2022-11-03T18:39:50;11.60;1.00
24374;DHT22;12498;50.880;12.096;2022-11-03T18:42:16;11.60;1.00
24374;DHT22;12498;50.880;12.096;2022-11-03T18:44:42;11.50;1.00
24374;DHT22;12498;50.880;12.096;2022-11-03T18:47:10;11.50;1.00
24374;DHT22;12498;50.880;12.096;2022-11-03T18:49:36;11.50;1.00
24374;DHT22;12498;50.880;12.096;2022-11-03T18:52:09;11.50;1.00
24374;DHT22;12498;50.880;12.096;2022-11-03T18:54:36;11.50;1.00
24374;DHT22;12498;50.880;12.096;2022-11-03T18:57:04;11.50;1.00